sensor_id;sensor_type;location;lat;lon;timestamp;P1;durP1;ratioP1;P2;durP2;ratioP2
25391;SDS011;13329;48.402;11.718;2024-03-07T00:00:13;26.35;;;13.07;;
25391;SDS011;13329;48.402;11.718;2024-03-07T00:02:45;24.80;;;13.70;;
25391;SDS011;13329;48.402;11.718;2024-03-07T00:05:18;29.17;;;15.00;;
25391;SDS011;13329;48.402;11.718;2024-03-07T00:07:45;31.50;;;13.00;;
25391;SDS011;13329;48.402;11.718;2024-03-07T00:10:11;32.45;;;13.73;;
25391;SDS011;13329;48.402;11.718;2024-03-07T00:12:37;28.17;;;13.65;;
25391;SDS011;13329;48.402;11.718;2024-03-07T00:15:07;40.30;;;15.27;;
25391;SDS011;13329;48.402;11.718;2024-03-07T00:17:36;25.83;;;14.20;;
25391;SDS011;13329;48.402;11.718;2024-03-07T00:20:03;25.05;;;13.00;;
25391;SDS011;13329;48.402;11.718;2024-03-07T00:22:30;30.88;;;14.57;;
25391;SDS011;13329;48.402;11.718;2024-03-07T00:24:56;40.38;;;15.15;;
25391;SDS011;13329;48.402;11.718;2024-03-07T00:27:22;32.53;;;15.38;;
25391;SDS011;13329;48.402;11.718;2024-03-07T00:29:48;29.27;;;14.18;;
25391;SDS011;13329;48.402;11.718;2024-03-07T00:32:21;31.58;;;14.40;;
25391;SDS011;13329;48.402;11.718;2024-03-07T00:34:47;23.38;;;14.00;;
25391;SDS011;13329;48.402;11.718;2024-03-07T00:37:13;27.80;;;14.02;;
25391;SDS011;13329;48.402;11.718;2024-03-07T00:39:38;29.98;;;13.45;;
25391;SDS011;13329;48.402;11.718;2024-03-07T00:42:04;26.90;;;12.95;;
25391;SDS011;13329;48.402;11.718;2024-03-07T00:44:29;28.90;;;14.35;;
25391;SDS011;13329;48.402;11.718;2024-03-07T00:46:54;29.23;;;14.65;;
25391;SDS011;13329;48.402;11.718;2024-03-07T00:49:20;30.50;;;15.57;;
25391;SDS011;13329;48.402;11.718;2024-03-07T00:51:45;24.95;;;13.82;;
25391;SDS011;13329;48.402;11.718;2024-03-07T00:54:10;29.77;;;15.73;;
25391;SDS011;13329;48.402;11.718;2024-03-07T00:56:38;29.33;;;15.18;;
25391;SDS011;13329;48.402;11.718;2024-03-07T00:59:03;27.33;;;15.07;;
25391;SDS011;13329;48.402;11.718;2024-03-07T01:01:29;23.92;;;13.52;;
25391;SDS011;13329;48.402;11.718;2024-03-07T01:03:54;29.42;;;14.05;;
25391;SDS011;13329;48.402;11.718;2024-03-07T01:06:19;27.83;;;13.88;;
25391;SDS011;13329;48.402;11.718;2024-03-07T01:08:45;29.58;;;14.48;;
25391;SDS011;13329;48.402;11.718;2024-03-07T01:11:10;32.33;;;14.07;;
25391;SDS011;13329;48.402;11.718;2024-03-07T01:13:37;29.10;;;14.50;;
25391;SDS011;13329;48.402;11.718;2024-03-07T01:16:06;23.95;;;15.02;;
25391;SDS011;13329;48.402;11.718;2024-03-07T01:18:31;30.88;;;14.25;;
25391;SDS011;13329;48.402;11.718;2024-03-07T01:21:03;26.33;;;14.07;;
25391;SDS011;13329;48.402;11.718;2024-03-07T01:23:30;25.02;;;14.23;;
25391;SDS011;13329;48.402;11.718;2024-03-07T01:25:56;31.58;;;13.23;;
25391;SDS011;13329;48.402;11.718;2024-03-07T01:28:23;29.00;;;16.15;;
25391;SDS011;13329;48.402;11.718;2024-03-07T01:30:55;26.30;;;14.05;;
25391;SDS011;13329;48.402;11.718;2024-03-07T01:33:20;24.17;;;14.10;;
25391;SDS011;13329;48.402;11.718;2024-03-07T01:35:45;32.28;;;15.45;;
25391;SDS011;13329;48.402;11.718;2024-03-07T01:38:11;30.17;;;14.57;;
25391;SDS011;13329;48.402;11.718;2024-03-07T01:40:39;27.27;;;14.85;;
25391;SDS011;13329;48.402;11.718;2024-03-07T01:43:04;29.95;;;14.90;;
25391;SDS011;13329;48.402;11.718;2024-03-07T01:45:30;27.42;;;13.85;;
25391;SDS011;13329;48.402;11.718;2024-03-07T01:47:55;33.92;;;14.32;;
25391;SDS011;13329;48.402;11.718;2024-03-07T01:50:21;27.25;;;14.43;;
25391;SDS011;13329;48.402;11.718;2024-03-07T01:52:46;31.75;;;15.35;;
25391;SDS011;13329;48.402;11.718;2024-03-07T01:55:15;23.20;;;12.95;;
25391;SDS011;13329;48.402;11.718;2024-03-07T01:57:41;34.25;;;14.68;;
25391;SDS011;13329;48.402;11.718;2024-03-07T02:00:07;35.03;;;13.55;;
25391;SDS011;13329;48.402;11.718;2024-03-07T02:02:34;23.95;;;13.88;;
25391;SDS011;13329;48.402;11.718;2024-03-07T02:04:59;29.80;;;13.60;;
25391;SDS011;13329;48.402;11.718;2024-03-07T02:07:25;30.23;;;13.45;;
25391;SDS011;13329;48.402;11.718;2024-03-07T02:09:58;30.95;;;15.00;;
25391;SDS011;13329;48.402;11.718;2024-03-07T02:12:24;25.77;;;13.25;;
25391;SDS011;13329;48.402;11.718;2024-03-07T02:14:49;28.60;;;13.90;;
25391;SDS011;13329;48.402;11.718;2024-03-07T02:17:15;27.98;;;15.68;;
25391;SDS011;13329;48.402;11.718;2024-03-07T02:19:40;28.25;;;15.23;;
25391;SDS011;13329;48.402;11.718;2024-03-07T02:22:05;30.85;;;14.20;;
25391;SDS011;13329;48.402;11.718;2024-03-07T02:24:31;29.50;;;14.52;;
25391;SDS011;13329;48.402;11.718;2024-03-07T02:26:57;25.20;;;14.27;;
25391;SDS011;13329;48.402;11.718;2024-03-07T02:29:24;24.88;;;13.18;;
25391;SDS011;13329;48.402;11.718;2024-03-07T02:31:49;29.17;;;15.68;;
25391;SDS011;13329;48.402;11.718;2024-03-07T02:34:16;26.23;;;15.48;;
25391;SDS011;13329;48.402;11.718;2024-03-07T02:36:42;31.05;;;16.95;;
25391;SDS011;13329;48.402;11.718;2024-03-07T02:39:07;31.95;;;14.52;;
25391;SDS011;13329;48.402;11.718;2024-03-07T02:41:32;28.45;;;15.82;;
25391;SDS011;13329;48.402;11.718;2024-03-07T02:43:59;28.63;;;15.82;;
25391;SDS011;13329;48.402;11.718;2024-03-07T02:46:26;33.38;;;16.58;;
25391;SDS011;13329;48.402;11.718;2024-03-07T02:48:51;33.90;;;16.25;;
25391;SDS011;13329;48.402;11.718;2024-03-07T02:51:16;29.25;;;16.33;;
25391;SDS011;13329;48.402;11.718;2024-03-07T02:53:42;38.20;;;16.83;;
25391;SDS011;13329;48.402;11.718;2024-03-07T02:56:07;26.17;;;14.85;;
25391;SDS011;13329;48.402;11.718;2024-03-07T02:58:33;32.75;;;15.32;;
25391;SDS011;13329;48.402;11.718;2024-03-07T03:00:58;36.33;;;17.38;;
25391;SDS011;13329;48.402;11.718;2024-03-07T03:03:30;28.23;;;14.82;;
25391;SDS011;13329;48.402;11.718;2024-03-07T03:05:59;35.90;;;16.65;;
25391;SDS011;13329;48.402;11.718;2024-03-07T03:08:25;31.33;;;17.15;;
25391;SDS011;13329;48.402;11.718;2024-03-07T03:10:50;36.10;;;16.05;;
25391;SDS011;13329;48.402;11.718;2024-03-07T03:13:18;30.63;;;16.17;;
25391;SDS011;13329;48.402;11.718;2024-03-07T03:15:43;36.30;;;16.10;;
25391;SDS011;13329;48.402;11.718;2024-03-07T03:18:09;26.25;;;15.05;;
25391;SDS011;13329;48.402;11.718;2024-03-07T03:20:34;33.90;;;17.92;;
25391;SDS011;13329;48.402;11.718;2024-03-07T03:23:03;29.38;;;15.18;;
25391;SDS011;13329;48.402;11.718;2024-03-07T03:25:36;29.25;;;14.05;;
25391;SDS011;13329;48.402;11.718;2024-03-07T03:28:03;27.30;;;16.67;;
25391;SDS011;13329;48.402;11.718;2024-03-07T03:30:34;27.50;;;14.38;;
25391;SDS011;13329;48.402;11.718;2024-03-07T03:33:00;26.00;;;15.82;;
25391;SDS011;13329;48.402;11.718;2024-03-07T03:35:25;26.45;;;16.35;;
25391;SDS011;13329;48.402;11.718;2024-03-07T03:37:51;29.80;;;15.23;;
25391;SDS011;13329;48.402;11.718;2024-03-07T03:40:16;29.00;;;16.77;;
25391;SDS011;13329;48.402;11.718;2024-03-07T03:42:42;27.25;;;16.38;;
25391;SDS011;13329;48.402;11.718;2024-03-07T03:45:08;30.08;;;15.43;;
25391;SDS011;13329;48.402;11.718;2024-03-07T03:47:39;25.30;;;15.18;;
25391;SDS011;13329;48.402;11.718;2024-03-07T03:50:06;30.00;;;15.93;;
25391;SDS011;13329;48.402;11.718;2024-03-07T03:52:33;22.45;;;14.43;;
25391;SDS011;13329;48.402;11.718;2024-03-07T03:55:01;21.20;;;14.32;;
25391;SDS011;13329;48.402;11.718;2024-03-07T03:57:29;26.65;;;16.02;;
25391;SDS011;13329;48.402;11.718;2024-03-07T03:59:55;24.55;;;17.02;;
25391;SDS011;13329;48.402;11.718;2024-03-07T04:02:21;27.30;;;14.50;;
25391;SDS011;13329;48.402;11.718;2024-03-07T04:04:47;21.77;;;13.48;;
25391;SDS011;13329;48.402;11.718;2024-03-07T04:07:16;31.10;;;15.90;;
25391;SDS011;13329;48.402;11.718;2024-03-07T04:09:42;22.50;;;15.00;;
25391;SDS011;13329;48.402;11.718;2024-03-07T04:12:09;26.33;;;15.02;;
25391;SDS011;13329;48.402;11.718;2024-03-07T04:14:36;24.98;;;15.57;;
25391;SDS011;13329;48.402;11.718;2024-03-07T04:17:05;22.63;;;13.65;;
25391;SDS011;13329;48.402;11.718;2024-03-07T04:19:33;33.92;;;13.30;;
25391;SDS011;13329;48.402;11.718;2024-03-07T04:22:01;28.13;;;16.90;;
25391;SDS011;13329;48.402;11.718;2024-03-07T04:24:28;25.70;;;14.80;;
25391;SDS011;13329;48.402;11.718;2024-03-07T04:26:54;30.23;;;15.23;;
25391;SDS011;13329;48.402;11.718;2024-03-07T04:29:19;30.17;;;13.75;;
25391;SDS011;13329;48.402;11.718;2024-03-07T04:31:44;27.15;;;15.00;;
25391;SDS011;13329;48.402;11.718;2024-03-07T04:34:09;30.70;;;14.98;;
25391;SDS011;13329;48.402;11.718;2024-03-07T04:36:35;24.98;;;15.77;;
25391;SDS011;13329;48.402;11.718;2024-03-07T04:39:00;27.88;;;15.10;;
25391;SDS011;13329;48.402;11.718;2024-03-07T04:41:29;26.52;;;13.93;;
25391;SDS011;13329;48.402;11.718;2024-03-07T04:43:54;26.70;;;14.60;;
25391;SDS011;13329;48.402;11.718;2024-03-07T04:46:20;23.67;;;15.07;;
25391;SDS011;13329;48.402;11.718;2024-03-07T04:48:45;23.88;;;12.68;;
25391;SDS011;13329;48.402;11.718;2024-03-07T04:51:10;22.13;;;13.48;;
25391;SDS011;13329;48.402;11.718;2024-03-07T04:53:35;24.80;;;14.85;;
25391;SDS011;13329;48.402;11.718;2024-03-07T04:56:06;26.10;;;14.25;;
25391;SDS011;13329;48.402;11.718;2024-03-07T04:58:34;25.88;;;14.10;;
25391;SDS011;13329;48.402;11.718;2024-03-07T05:01:00;18.63;;;13.63;;
25391;SDS011;13329;48.402;11.718;2024-03-07T05:03:27;24.30;;;13.68;;
25391;SDS011;13329;48.402;11.718;2024-03-07T05:05:52;23.23;;;13.55;;
25391;SDS011;13329;48.402;11.718;2024-03-07T05:08:18;23.45;;;12.52;;
25391;SDS011;13329;48.402;11.718;2024-03-07T05:10:43;31.83;;;15.32;;
25391;SDS011;13329;48.402;11.718;2024-03-07T05:13:08;27.30;;;15.82;;
25391;SDS011;13329;48.402;11.718;2024-03-07T05:15:33;25.17;;;15.45;;
25391;SDS011;13329;48.402;11.718;2024-03-07T05:17:59;30.17;;;14.88;;
25391;SDS011;13329;48.402;11.718;2024-03-07T05:20:24;25.45;;;13.98;;
25391;SDS011;13329;48.402;11.718;2024-03-07T05:22:49;30.90;;;14.70;;
25391;SDS011;13329;48.402;11.718;2024-03-07T05:25:18;28.13;;;16.05;;
25391;SDS011;13329;48.402;11.718;2024-03-07T05:27:44;26.80;;;14.60;;
25391;SDS011;13329;48.402;11.718;2024-03-07T05:30:10;22.00;;;14.07;;
25391;SDS011;13329;48.402;11.718;2024-03-07T05:32:36;24.27;;;14.13;;
25391;SDS011;13329;48.402;11.718;2024-03-07T05:35:02;27.55;;;13.65;;
25391;SDS011;13329;48.402;11.718;2024-03-07T05:37:27;21.85;;;14.15;;
25391;SDS011;13329;48.402;11.718;2024-03-07T05:39:53;18.75;;;13.20;;
25391;SDS011;13329;48.402;11.718;2024-03-07T05:42:18;24.15;;;14.57;;
25391;SDS011;13329;48.402;11.718;2024-03-07T05:44:44;26.67;;;13.55;;
25391;SDS011;13329;48.402;11.718;2024-03-07T05:47:10;23.80;;;14.82;;
25391;SDS011;13329;48.402;11.718;2024-03-07T05:49:38;26.35;;;13.45;;
25391;SDS011;13329;48.402;11.718;2024-03-07T05:52:04;33.50;;;15.05;;
25391;SDS011;13329;48.402;11.718;2024-03-07T05:54:30;30.20;;;14.88;;
25391;SDS011;13329;48.402;11.718;2024-03-07T05:56:56;24.02;;;14.60;;
25391;SDS011;13329;48.402;11.718;2024-03-07T05:59:21;24.20;;;13.82;;
25391;SDS011;13329;48.402;11.718;2024-03-07T06:01:47;27.35;;;15.02;;
25391;SDS011;13329;48.402;11.718;2024-03-07T06:04:13;26.40;;;12.68;;
25391;SDS011;13329;48.402;11.718;2024-03-07T06:06:38;24.25;;;13.85;;
25391;SDS011;13329;48.402;11.718;2024-03-07T06:09:07;30.65;;;15.10;;
25391;SDS011;13329;48.402;11.718;2024-03-07T06:11:34;19.33;;;14.10;;
25391;SDS011;13329;48.402;11.718;2024-03-07T06:14:03;36.25;;;16.17;;
25391;SDS011;13329;48.402;11.718;2024-03-07T06:16:30;23.17;;;15.18;;
25391;SDS011;13329;48.402;11.718;2024-03-07T06:18:58;26.60;;;15.38;;
25391;SDS011;13329;48.402;11.718;2024-03-07T06:21:24;19.98;;;13.80;;
25391;SDS011;13329;48.402;11.718;2024-03-07T06:23:50;27.98;;;15.05;;
25391;SDS011;13329;48.402;11.718;2024-03-07T06:26:24;24.00;;;13.80;;
25391;SDS011;13329;48.402;11.718;2024-03-07T06:29:02;22.65;;;14.32;;
25391;SDS011;13329;48.402;11.718;2024-03-07T06:31:30;21.88;;;12.85;;
25391;SDS011;13329;48.402;11.718;2024-03-07T06:33:56;22.17;;;14.68;;
25391;SDS011;13329;48.402;11.718;2024-03-07T06:36:22;25.70;;;14.05;;
25391;SDS011;13329;48.402;11.718;2024-03-07T06:38:47;27.13;;;14.55;;
25391;SDS011;13329;48.402;11.718;2024-03-07T06:41:13;23.70;;;14.48;;
25391;SDS011;13329;48.402;11.718;2024-03-07T06:43:38;23.92;;;14.60;;
25391;SDS011;13329;48.402;11.718;2024-03-07T06:46:04;29.48;;;14.18;;
25391;SDS011;13329;48.402;11.718;2024-03-07T06:48:31;29.73;;;15.65;;
25391;SDS011;13329;48.402;11.718;2024-03-07T06:50:56;26.58;;;13.90;;
25391;SDS011;13329;48.402;11.718;2024-03-07T06:53:22;32.00;;;14.63;;
25391;SDS011;13329;48.402;11.718;2024-03-07T06:55:51;18.63;;;13.55;;
25391;SDS011;13329;48.402;11.718;2024-03-07T06:58:18;28.48;;;15.82;;
25391;SDS011;13329;48.402;11.718;2024-03-07T07:00:44;25.90;;;14.73;;
25391;SDS011;13329;48.402;11.718;2024-03-07T07:03:10;30.45;;;15.13;;
25391;SDS011;13329;48.402;11.718;2024-03-07T07:05:37;32.72;;;15.60;;
25391;SDS011;13329;48.402;11.718;2024-03-07T07:08:05;28.67;;;15.02;;
25391;SDS011;13329;48.402;11.718;2024-03-07T07:10:31;28.77;;;15.48;;
25391;SDS011;13329;48.402;11.718;2024-03-07T07:12:57;32.45;;;14.30;;
25391;SDS011;13329;48.402;11.718;2024-03-07T07:15:22;29.30;;;15.38;;
25391;SDS011;13329;48.402;11.718;2024-03-07T07:17:47;24.73;;;14.77;;
25391;SDS011;13329;48.402;11.718;2024-03-07T07:20:17;24.25;;;13.77;;
25391;SDS011;13329;48.402;11.718;2024-03-07T07:22:44;27.10;;;16.60;;
25391;SDS011;13329;48.402;11.718;2024-03-07T07:25:11;28.92;;;15.52;;
25391;SDS011;13329;48.402;11.718;2024-03-07T07:27:41;27.10;;;15.75;;
25391;SDS011;13329;48.402;11.718;2024-03-07T07:30:08;28.25;;;14.15;;
25391;SDS011;13329;48.402;11.718;2024-03-07T07:32:35;33.13;;;16.50;;
25391;SDS011;13329;48.402;11.718;2024-03-07T07:35:01;30.50;;;15.48;;
25391;SDS011;13329;48.402;11.718;2024-03-07T07:37:27;30.58;;;15.23;;
25391;SDS011;13329;48.402;11.718;2024-03-07T07:39:52;33.63;;;15.73;;
25391;SDS011;13329;48.402;11.718;2024-03-07T07:42:17;28.25;;;16.02;;
25391;SDS011;13329;48.402;11.718;2024-03-07T07:44:43;25.80;;;14.52;;
25391;SDS011;13329;48.402;11.718;2024-03-07T07:47:08;32.65;;;15.80;;
25391;SDS011;13329;48.402;11.718;2024-03-07T07:49:35;29.73;;;14.27;;
25391;SDS011;13329;48.402;11.718;2024-03-07T07:52:01;29.58;;;16.35;;
25391;SDS011;13329;48.402;11.718;2024-03-07T07:54:26;33.63;;;15.40;;
25391;SDS011;13329;48.402;11.718;2024-03-07T07:56:52;33.30;;;15.55;;
25391;SDS011;13329;48.402;11.718;2024-03-07T07:59:17;38.20;;;15.45;;
25391;SDS011;13329;48.402;11.718;2024-03-07T08:01:42;33.95;;;15.88;;
25391;SDS011;13329;48.402;11.718;2024-03-07T08:04:07;28.38;;;15.32;;
25391;SDS011;13329;48.402;11.718;2024-03-07T08:06:34;27.38;;;15.70;;
25391;SDS011;13329;48.402;11.718;2024-03-07T08:09:00;22.48;;;12.95;;
25391;SDS011;13329;48.402;11.718;2024-03-07T08:11:25;33.47;;;15.82;;
25391;SDS011;13329;48.402;11.718;2024-03-07T08:13:51;23.65;;;14.77;;
25391;SDS011;13329;48.402;11.718;2024-03-07T08:16:16;32.92;;;13.68;;
25391;SDS011;13329;48.402;11.718;2024-03-07T08:18:42;27.95;;;14.40;;
25391;SDS011;13329;48.402;11.718;2024-03-07T08:21:07;28.60;;;15.38;;
25391;SDS011;13329;48.402;11.718;2024-03-07T08:23:35;31.17;;;14.77;;
25391;SDS011;13329;48.402;11.718;2024-03-07T08:26:01;24.33;;;14.77;;
25391;SDS011;13329;48.402;11.718;2024-03-07T08:28:26;37.53;;;15.68;;
25391;SDS011;13329;48.402;11.718;2024-03-07T08:30:52;22.27;;;13.63;;
25391;SDS011;13329;48.402;11.718;2024-03-07T08:33:17;22.83;;;13.55;;
25391;SDS011;13329;48.402;11.718;2024-03-07T08:35:46;30.75;;;14.38;;
25391;SDS011;13329;48.402;11.718;2024-03-07T08:38:12;25.42;;;13.18;;
25391;SDS011;13329;48.402;11.718;2024-03-07T08:40:37;22.45;;;11.98;;
25391;SDS011;13329;48.402;11.718;2024-03-07T08:43:02;24.23;;;13.60;;
25391;SDS011;13329;48.402;11.718;2024-03-07T08:45:28;26.17;;;14.13;;
25391;SDS011;13329;48.402;11.718;2024-03-07T08:47:54;20.75;;;13.38;;
25391;SDS011;13329;48.402;11.718;2024-03-07T08:50:21;22.13;;;13.50;;
25391;SDS011;13329;48.402;11.718;2024-03-07T08:52:47;23.00;;;13.07;;
25391;SDS011;13329;48.402;11.718;2024-03-07T08:55:17;23.65;;;12.27;;
25391;SDS011;13329;48.402;11.718;2024-03-07T08:57:44;24.27;;;12.35;;
25391;SDS011;13329;48.402;11.718;2024-03-07T09:00:11;24.35;;;13.35;;
25391;SDS011;13329;48.402;11.718;2024-03-07T09:02:47;24.92;;;13.02;;
25391;SDS011;13329;48.402;11.718;2024-03-07T09:05:19;27.10;;;14.20;;
25391;SDS011;13329;48.402;11.718;2024-03-07T09:07:48;23.95;;;13.25;;
25391;SDS011;13329;48.402;11.718;2024-03-07T09:10:14;26.20;;;13.82;;
25391;SDS011;13329;48.402;11.718;2024-03-07T09:12:40;28.77;;;13.60;;
25391;SDS011;13329;48.402;11.718;2024-03-07T09:15:05;23.40;;;14.25;;
25391;SDS011;13329;48.402;11.718;2024-03-07T09:17:31;21.85;;;12.70;;
25391;SDS011;13329;48.402;11.718;2024-03-07T09:19:56;24.35;;;13.55;;
25391;SDS011;13329;48.402;11.718;2024-03-07T09:22:22;21.27;;;12.98;;
25391;SDS011;13329;48.402;11.718;2024-03-07T09:24:47;29.23;;;14.38;;
25391;SDS011;13329;48.402;11.718;2024-03-07T09:27:12;25.93;;;12.67;;
25391;SDS011;13329;48.402;11.718;2024-03-07T09:29:40;28.27;;;13.90;;
25391;SDS011;13329;48.402;11.718;2024-03-07T09:32:05;26.02;;;13.73;;
25391;SDS011;13329;48.402;11.718;2024-03-07T09:34:34;24.83;;;13.30;;
25391;SDS011;13329;48.402;11.718;2024-03-07T09:37:00;28.77;;;15.27;;
25391;SDS011;13329;48.402;11.718;2024-03-07T09:39:26;31.25;;;14.70;;
25391;SDS011;13329;48.402;11.718;2024-03-07T09:41:52;35.90;;;14.65;;
25391;SDS011;13329;48.402;11.718;2024-03-07T09:44:19;28.58;;;15.43;;
25391;SDS011;13329;48.402;11.718;2024-03-07T09:46:50;26.58;;;14.75;;
25391;SDS011;13329;48.402;11.718;2024-03-07T09:49:19;24.05;;;13.73;;
25391;SDS011;13329;48.402;11.718;2024-03-07T09:51:47;27.48;;;13.90;;
25391;SDS011;13329;48.402;11.718;2024-03-07T09:54:22;27.90;;;14.80;;
25391;SDS011;13329;48.402;11.718;2024-03-07T09:56:50;35.30;;;16.73;;
25391;SDS011;13329;48.402;11.718;2024-03-07T09:59:18;28.95;;;13.68;;
25391;SDS011;13329;48.402;11.718;2024-03-07T10:01:45;25.23;;;13.63;;
25391;SDS011;13329;48.402;11.718;2024-03-07T10:04:13;29.95;;;14.25;;
25391;SDS011;13329;48.402;11.718;2024-03-07T10:06:39;30.45;;;14.43;;
25391;SDS011;13329;48.402;11.718;2024-03-07T10:09:06;23.55;;;13.85;;
25391;SDS011;13329;48.402;11.718;2024-03-07T10:11:32;24.60;;;14.18;;
25391;SDS011;13329;48.402;11.718;2024-03-07T10:13:59;29.02;;;14.10;;
25391;SDS011;13329;48.402;11.718;2024-03-07T10:16:24;30.27;;;14.25;;
25391;SDS011;13329;48.402;11.718;2024-03-07T10:18:49;33.30;;;15.27;;
25391;SDS011;13329;48.402;11.718;2024-03-07T10:21:18;28.08;;;15.00;;
25391;SDS011;13329;48.402;11.718;2024-03-07T10:23:44;31.55;;;14.93;;
25391;SDS011;13329;48.402;11.718;2024-03-07T10:26:10;27.63;;;14.25;;
25391;SDS011;13329;48.402;11.718;2024-03-07T10:28:35;23.90;;;12.98;;
25391;SDS011;13329;48.402;11.718;2024-03-07T10:31:02;28.00;;;14.27;;
25391;SDS011;13329;48.402;11.718;2024-03-07T10:33:28;26.95;;;14.15;;
25391;SDS011;13329;48.402;11.718;2024-03-07T10:35:58;29.17;;;13.07;;
25391;SDS011;13329;48.402;11.718;2024-03-07T10:38:23;25.75;;;14.63;;
25391;SDS011;13329;48.402;11.718;2024-03-07T10:40:52;26.60;;;13.82;;
25391;SDS011;13329;48.402;11.718;2024-03-07T10:43:19;26.88;;;13.98;;
25391;SDS011;13329;48.402;11.718;2024-03-07T10:45:46;24.13;;;13.15;;
25391;SDS011;13329;48.402;11.718;2024-03-07T10:48:13;27.05;;;13.50;;
25391;SDS011;13329;48.402;11.718;2024-03-07T10:53:14;24.85;;;12.73;;
25391;SDS011;13329;48.402;11.718;2024-03-07T10:58:35;22.67;;;12.35;;
25391;SDS011;13329;48.402;11.718;2024-03-07T11:01:05;31.73;;;14.07;;
25391;SDS011;13329;48.402;11.718;2024-03-07T11:03:33;30.65;;;14.15;;
25391;SDS011;13329;48.402;11.718;2024-03-07T11:06:00;26.80;;;14.07;;
25391;SDS011;13329;48.402;11.718;2024-03-07T11:08:31;26.90;;;13.20;;
25391;SDS011;13329;48.402;11.718;2024-03-07T11:10:59;24.75;;;14.20;;
25391;SDS011;13329;48.402;11.718;2024-03-07T11:13:24;24.77;;;13.23;;
25391;SDS011;13329;48.402;11.718;2024-03-07T11:15:51;22.70;;;12.63;;
25391;SDS011;13329;48.402;11.718;2024-03-07T11:18:22;27.65;;;13.45;;
25391;SDS011;13329;48.402;11.718;2024-03-07T11:20:49;20.55;;;12.52;;
25391;SDS011;13329;48.402;11.718;2024-03-07T11:23:24;32.97;;;13.35;;
25391;SDS011;13329;48.402;11.718;2024-03-07T11:25:53;22.33;;;12.93;;
25391;SDS011;13329;48.402;11.718;2024-03-07T11:28:19;27.13;;;13.38;;
25391;SDS011;13329;48.402;11.718;2024-03-07T11:30:45;34.22;;;13.57;;
25391;SDS011;13329;48.402;11.718;2024-03-07T11:33:10;22.92;;;12.90;;
25391;SDS011;13329;48.402;11.718;2024-03-07T11:35:39;22.92;;;12.55;;
25391;SDS011;13329;48.402;11.718;2024-03-07T11:38:06;28.48;;;13.25;;
25391;SDS011;13329;48.402;11.718;2024-03-07T11:43:04;28.25;;;12.65;;
25391;SDS011;13329;48.402;11.718;2024-03-07T11:45:30;25.42;;;12.63;;
25391;SDS011;13329;48.402;11.718;2024-03-07T11:48:05;26.15;;;12.65;;
25391;SDS011;13329;48.402;11.718;2024-03-07T11:50:40;22.05;;;11.98;;
25391;SDS011;13329;48.402;11.718;2024-03-07T11:53:07;29.00;;;12.63;;
25391;SDS011;13329;48.402;11.718;2024-03-07T11:55:34;23.63;;;13.43;;
25391;SDS011;13329;48.402;11.718;2024-03-07T11:58:26;24.58;;;11.80;;
25391;SDS011;13329;48.402;11.718;2024-03-07T12:00:51;21.00;;;11.60;;
25391;SDS011;13329;48.402;11.718;2024-03-07T12:03:18;23.40;;;12.13;;
25391;SDS011;13329;48.402;11.718;2024-03-07T12:05:49;24.75;;;11.82;;
25391;SDS011;13329;48.402;11.718;2024-03-07T12:08:16;23.60;;;11.77;;
25391;SDS011;13329;48.402;11.718;2024-03-07T12:10:42;26.90;;;11.18;;
25391;SDS011;13329;48.402;11.718;2024-03-07T12:13:09;21.33;;;11.75;;
25391;SDS011;13329;48.402;11.718;2024-03-07T12:15:40;33.55;;;13.05;;
25391;SDS011;13329;48.402;11.718;2024-03-07T12:18:07;19.55;;;11.07;;
25391;SDS011;13329;48.402;11.718;2024-03-07T12:20:40;11.73;;;6.93;;
25391;SDS011;13329;48.402;11.718;2024-03-07T12:23:07;23.25;;;11.48;;
25391;SDS011;13329;48.402;11.718;2024-03-07T12:25:37;19.67;;;10.48;;
25391;SDS011;13329;48.402;11.718;2024-03-07T12:28:07;21.33;;;10.02;;
25391;SDS011;13329;48.402;11.718;2024-03-07T12:30:57;18.50;;;10.05;;
25391;SDS011;13329;48.402;11.718;2024-03-07T12:33:23;19.20;;;10.20;;
25391;SDS011;13329;48.402;11.718;2024-03-07T12:35:53;18.55;;;10.25;;
25391;SDS011;13329;48.402;11.718;2024-03-07T12:38:25;20.75;;;11.10;;
25391;SDS011;13329;48.402;11.718;2024-03-07T12:41:02;20.95;;;10.55;;
25391;SDS011;13329;48.402;11.718;2024-03-07T12:43:31;21.98;;;11.80;;
25391;SDS011;13329;48.402;11.718;2024-03-07T12:45:57;18.80;;;10.65;;
25391;SDS011;13329;48.402;11.718;2024-03-07T12:48:23;19.10;;;10.70;;
25391;SDS011;13329;48.402;11.718;2024-03-07T12:50:50;22.42;;;11.18;;
25391;SDS011;13329;48.402;11.718;2024-03-07T12:53:21;23.10;;;11.27;;
25391;SDS011;13329;48.402;11.718;2024-03-07T12:55:48;22.17;;;9.90;;
25391;SDS011;13329;48.402;11.718;2024-03-07T12:58:13;21.52;;;11.88;;
25391;SDS011;13329;48.402;11.718;2024-03-07T13:00:40;23.88;;;10.82;;
25391;SDS011;13329;48.402;11.718;2024-03-07T13:03:06;27.52;;;11.77;;
25391;SDS011;13329;48.402;11.718;2024-03-07T13:05:32;23.45;;;12.20;;
25391;SDS011;13329;48.402;11.718;2024-03-07T13:07:57;21.98;;;11.27;;
25391;SDS011;13329;48.402;11.718;2024-03-07T13:10:23;20.38;;;10.75;;
25391;SDS011;13329;48.402;11.718;2024-03-07T13:12:48;17.23;;;10.07;;
25391;SDS011;13329;48.402;11.718;2024-03-07T13:15:18;24.42;;;11.27;;
25391;SDS011;13329;48.402;11.718;2024-03-07T13:17:47;14.32;;;7.75;;
25391;SDS011;13329;48.402;11.718;2024-03-07T13:20:14;16.77;;;10.25;;
25391;SDS011;13329;48.402;11.718;2024-03-07T13:22:40;23.10;;;12.65;;
25391;SDS011;13329;48.402;11.718;2024-03-07T13:25:22;19.83;;;11.77;;
25391;SDS011;13329;48.402;11.718;2024-03-07T13:27:56;19.35;;;10.70;;
25391;SDS011;13329;48.402;11.718;2024-03-07T13:30:26;20.67;;;11.40;;
25391;SDS011;13329;48.402;11.718;2024-03-07T13:32:55;21.77;;;10.95;;
25391;SDS011;13329;48.402;11.718;2024-03-07T13:35:21;21.42;;;11.02;;
25391;SDS011;13329;48.402;11.718;2024-03-07T13:37:48;16.88;;;10.18;;
25391;SDS011;13329;48.402;11.718;2024-03-07T13:40:15;21.75;;;10.95;;
25391;SDS011;13329;48.402;11.718;2024-03-07T13:42:56;21.27;;;10.00;;
25391;SDS011;13329;48.402;11.718;2024-03-07T13:45:32;22.50;;;10.57;;
25391;SDS011;13329;48.402;11.718;2024-03-07T13:48:04;15.45;;;10.05;;
25391;SDS011;13329;48.402;11.718;2024-03-07T13:50:31;21.20;;;10.45;;
25391;SDS011;13329;48.402;11.718;2024-03-07T13:52:58;19.55;;;10.02;;
25391;SDS011;13329;48.402;11.718;2024-03-07T13:55:49;19.90;;;10.88;;
25391;SDS011;13329;48.402;11.718;2024-03-07T14:10:04;22.23;;;9.93;;
25391;SDS011;13329;48.402;11.718;2024-03-07T14:13:30;14.10;;;8.50;;
25391;SDS011;13329;48.402;11.718;2024-03-07T14:22:18;16.55;;;7.68;;
25391;SDS011;13329;48.402;11.718;2024-03-07T14:27:33;14.95;;;7.45;;
25391;SDS011;13329;48.402;11.718;2024-03-07T14:30:22;21.40;;;9.63;;
25391;SDS011;13329;48.402;11.718;2024-03-07T14:35:35;16.75;;;8.60;;
25391;SDS011;13329;48.402;11.718;2024-03-07T14:40:49;14.38;;;8.30;;
25391;SDS011;13329;48.402;11.718;2024-03-07T14:43:16;14.10;;;8.00;;